sensor_id;sensor_type;location;lat;lon;timestamp;temperature;humidity
12967;DHT22;6548;49.996;8.238;2023-07-31T07:13:13;21.20;99.90
12967;DHT22;6548;49.996;8.238;2023-07-31T08:43:49;21.00;99.90
12967;DHT22;6548;49.996;8.238;2023-07-31T08:46:15;21.00;99.90
12967;DHT22;6548;49.996;8.238;2023-07-31T08:48:42;21.00;99.90
12967;DHT22;6548;49.996;8.238;2023-07-31T09:30:57;21.10;99.90
12967;DHT22;6548;49.996;8.238;2023-07-31T15:38:56;21.70;99.90
12967;DHT22;6548;49.996;8.238;2023-07-31T15:41:22;21.80;99.90
12967;DHT22;6548;49.996;8.238;2023-07-31T15:43:48;21.90;99.90
12967;DHT22;6548;49.996;8.238;2023-07-31T15:46:14;21.90;99.90
12967;DHT22;6548;49.996;8.238;2023-07-31T15:48:40;21.70;99.90
12967;DHT22;6548;49.996;8.238;2023-07-31T15:51:05;21.70;99.90
12967;DHT22;6548;49.996;8.238;2023-07-31T15:53:31;21.60;99.90
12967;DHT22;6548;49.996;8.238;2023-07-31T15:55:56;21.60;99.90
12967;DHT22;6548;49.996;8.238;2023-07-31T15:58:22;21.70;99.90
12967;DHT22;6548;49.996;8.238;2023-07-31T16:00:48;21.70;99.90
12967;DHT22;6548;49.996;8.238;2023-07-31T16:03:13;21.80;99.90
12967;DHT22;6548;49.996;8.238;2023-07-31T16:05:39;21.80;99.90
12967;DHT22;6548;49.996;8.238;2023-07-31T16:08:04;21.90;99.90
12967;DHT22;6548;49.996;8.238;2023-07-31T16:10:30;21.80;99.90
12967;DHT22;6548;49.996;8.238;2023-07-31T16:12:56;21.90;99.90
12967;DHT22;6548;49.996;8.238;2023-07-31T16:15:21;21.80;99.90
12967;DHT22;6548;49.996;8.238;2023-07-31T16:17:47;21.80;99.90
12967;DHT22;6548;49.996;8.238;2023-07-31T16:20:12;21.80;99.90
12967;DHT22;6548;49.996;8.238;2023-07-31T16:22:38;21.70;99.90
12967;DHT22;6548;49.996;8.238;2023-07-31T16:25:04;21.70;99.90
12967;DHT22;6548;49.996;8.238;2023-07-31T16:27:30;21.70;99.90
12967;DHT22;6548;49.996;8.238;2023-07-31T16:29:55;21.70;99.90
12967;DHT22;6548;49.996;8.238;2023-07-31T16:32:26;21.60;99.90
12967;DHT22;6548;49.996;8.238;2023-07-31T16:34:52;21.60;99.90
12967;DHT22;6548;49.996;8.238;2023-07-31T16:37:17;21.50;99.90
12967;DHT22;6548;49.996;8.238;2023-07-31T16:39:43;21.50;99.90
12967;DHT22;6548;49.996;8.238;2023-07-31T16:42:12;21.50;99.90
12967;DHT22;6548;49.996;8.238;2023-07-31T16:44:38;21.50;99.90
12967;DHT22;6548;49.996;8.238;2023-07-31T16:47:04;21.40;99.90
12967;DHT22;6548;49.996;8.238;2023-07-31T16:49:29;21.30;99.90
12967;DHT22;6548;49.996;8.238;2023-07-31T16:51:57;21.20;99.90
12967;DHT22;6548;49.996;8.238;2023-07-31T16:54:24;21.00;99.90
12967;DHT22;6548;49.996;8.238;2023-07-31T16:56:49;20.80;99.90
12967;DHT22;6548;49.996;8.238;2023-07-31T16:59:17;20.70;99.90
12967;DHT22;6548;49.996;8.238;2023-07-31T17:01:42;20.50;99.90
12967;DHT22;6548;49.996;8.238;2023-07-31T17:04:08;20.30;99.90
12967;DHT22;6548;49.996;8.238;2023-07-31T17:06:33;20.20;99.90
12967;DHT22;6548;49.996;8.238;2023-07-31T17:08:59;20.10;99.90
12967;DHT22;6548;49.996;8.238;2023-07-31T17:11:25;20.00;99.90
12967;DHT22;6548;49.996;8.238;2023-07-31T17:13:53;19.90;99.90
12967;DHT22;6548;49.996;8.238;2023-07-31T17:16:19;19.80;99.90
12967;DHT22;6548;49.996;8.238;2023-07-31T17:18:45;19.80;99.90
12967;DHT22;6548;49.996;8.238;2023-07-31T17:21:11;19.80;99.90
12967;DHT22;6548;49.996;8.238;2023-07-31T17:23:36;19.90;99.90
12967;DHT22;6548;49.996;8.238;2023-07-31T17:26:02;19.90;99.90
12967;DHT22;6548;49.996;8.238;2023-07-31T17:28:29;19.90;99.90
12967;DHT22;6548;49.996;8.238;2023-07-31T17:30:55;20.00;99.90
12967;DHT22;6548;49.996;8.238;2023-07-31T17:33:20;20.00;99.90
12967;DHT22;6548;49.996;8.238;2023-07-31T17:35:46;20.10;99.90
12967;DHT22;6548;49.996;8.238;2023-07-31T17:40:14;20.10;99.90
12967;DHT22;6548;49.996;8.238;2023-07-31T17:42:39;20.20;99.90
12967;DHT22;6548;49.996;8.238;2023-07-31T17:45:05;20.20;99.90
12967;DHT22;6548;49.996;8.238;2023-07-31T17:47:31;20.10;99.90
12967;DHT22;6548;49.996;8.238;2023-07-31T17:49:56;20.10;99.90
12967;DHT22;6548;49.996;8.238;2023-07-31T17:52:22;19.90;99.90
12967;DHT22;6548;49.996;8.238;2023-07-31T17:54:48;19.90;99.90
12967;DHT22;6548;49.996;8.238;2023-07-31T17:57:17;19.90;99.90
12967;DHT22;6548;49.996;8.238;2023-07-31T17:59:43;19.90;99.90
12967;DHT22;6548;49.996;8.238;2023-07-31T18:02:13;19.90;99.90
12967;DHT22;6548;49.996;8.238;2023-07-31T18:04:41;19.90;99.90
12967;DHT22;6548;49.996;8.238;2023-07-31T18:07:06;19.90;99.90
12967;DHT22;6548;49.996;8.238;2023-07-31T18:09:38;19.90;99.90
12967;DHT22;6548;49.996;8.238;2023-07-31T18:12:04;19.90;99.90
12967;DHT22;6548;49.996;8.238;2023-07-31T18:14:30;20.00;99.90
12967;DHT22;6548;49.996;8.238;2023-07-31T18:16:57;20.00;99.90
12967;DHT22;6548;49.996;8.238;2023-07-31T18:19:23;20.00;99.90
12967;DHT22;6548;49.996;8.238;2023-07-31T18:21:49;20.00;99.90
12967;DHT22;6548;49.996;8.238;2023-07-31T18:24:14;20.00;99.90
12967;DHT22;6548;49.996;8.238;2023-07-31T18:26:40;20.00;99.90
12967;DHT22;6548;49.996;8.238;2023-07-31T18:29:05;20.10;99.90
12967;DHT22;6548;49.996;8.238;2023-07-31T18:31:31;20.10;99.90
12967;DHT22;6548;49.996;8.238;2023-07-31T18:33:56;20.10;99.90
12967;DHT22;6548;49.996;8.238;2023-07-31T18:36:22;20.20;99.90
12967;DHT22;6548;49.996;8.238;2023-07-31T18:38:47;20.10;99.90
12967;DHT22;6548;49.996;8.238;2023-07-31T18:41:13;20.10;99.90
12967;DHT22;6548;49.996;8.238;2023-07-31T18:43:38;20.10;99.90
12967;DHT22;6548;49.996;8.238;2023-07-31T18:46:04;20.10;99.90
12967;DHT22;6548;49.996;8.238;2023-07-31T18:48:30;20.10;99.90
12967;DHT22;6548;49.996;8.238;2023-07-31T18:50:56;20.00;99.90
12967;DHT22;6548;49.996;8.238;2023-07-31T18:53:22;20.00;99.90
12967;DHT22;6548;49.996;8.238;2023-07-31T18:55:48;20.00;99.90
12967;DHT22;6548;49.996;8.238;2023-07-31T18:58:13;19.90;99.90
12967;DHT22;6548;49.996;8.238;2023-07-31T19:00:39;20.00;99.90
12967;DHT22;6548;49.996;8.238;2023-07-31T19:03:05;19.90;99.90
12967;DHT22;6548;49.996;8.238;2023-07-31T19:05:30;19.90;99.90
12967;DHT22;6548;49.996;8.238;2023-07-31T19:07:56;20.00;99.90
12967;DHT22;6548;49.996;8.238;2023-07-31T19:10:24;19.90;99.90
12967;DHT22;6548;49.996;8.238;2023-07-31T19:12:50;19.90;99.90
12967;DHT22;6548;49.996;8.238;2023-07-31T19:15:16;19.90;99.90
12967;DHT22;6548;49.996;8.238;2023-07-31T19:17:41;19.90;99.90
12967;DHT22;6548;49.996;8.238;2023-07-31T19:20:11;19.90;99.90
12967;DHT22;6548;49.996;8.238;2023-07-31T19:22:37;19.90;99.90
12967;DHT22;6548;49.996;8.238;2023-07-31T19:25:03;19.90;99.90
12967;DHT22;6548;49.996;8.238;2023-07-31T19:27:28;19.90;99.90
12967;DHT22;6548;49.996;8.238;2023-07-31T19:29:54;19.80;99.90
12967;DHT22;6548;49.996;8.238;2023-07-31T19:32:19;19.80;99.90
12967;DHT22;6548;49.996;8.238;2023-07-31T19:34:45;19.80;99.90
12967;DHT22;6548;49.996;8.238;2023-07-31T19:37:10;19.80;99.90
12967;DHT22;6548;49.996;8.238;2023-07-31T19:39:36;19.80;99.90
12967;DHT22;6548;49.996;8.238;2023-07-31T19:42:01;19.80;99.90
12967;DHT22;6548;49.996;8.238;2023-07-31T19:44:28;19.80;99.90
12967;DHT22;6548;49.996;8.238;2023-07-31T19:46:53;19.80;99.90
12967;DHT22;6548;49.996;8.238;2023-07-31T19:49:19;19.80;99.90
12967;DHT22;6548;49.996;8.238;2023-07-31T19:51:58;19.80;99.90
12967;DHT22;6548;49.996;8.238;2023-07-31T19:54:24;19.80;99.90
12967;DHT22;6548;49.996;8.238;2023-07-31T19:56:49;19.80;99.90
12967;DHT22;6548;49.996;8.238;2023-07-31T19:59:16;19.70;99.90
12967;DHT22;6548;49.996;8.238;2023-07-31T20:01:53;19.80;99.90
12967;DHT22;6548;49.996;8.238;2023-07-31T20:10:12;19.70;99.90
12967;DHT22;6548;49.996;8.238;2023-07-31T20:12:41;19.60;99.90
12967;DHT22;6548;49.996;8.238;2023-07-31T20:15:20;19.60;99.90
12967;DHT22;6548;49.996;8.238;2023-07-31T20:17:46;19.60;99.90
12967;DHT22;6548;49.996;8.238;2023-07-31T20:20:26;19.60;99.90
12967;DHT22;6548;49.996;8.238;2023-07-31T20:22:52;19.60;99.90
12967;DHT22;6548;49.996;8.238;2023-07-31T20:25:18;19.50;99.90
12967;DHT22;6548;49.996;8.238;2023-07-31T20:27:50;19.50;99.90
12967;DHT22;6548;49.996;8.238;2023-07-31T20:30:21;19.50;99.90
12967;DHT22;6548;49.996;8.238;2023-07-31T20:32:54;19.40;99.90
12967;DHT22;6548;49.996;8.238;2023-07-31T20:35:20;19.40;99.90
12967;DHT22;6548;49.996;8.238;2023-07-31T20:37:49;19.40;99.90
12967;DHT22;6548;49.996;8.238;2023-07-31T20:40:14;19.30;99.90
12967;DHT22;6548;49.996;8.238;2023-07-31T20:42:40;19.10;99.90
12967;DHT22;6548;49.996;8.238;2023-07-31T20:45:06;18.90;99.90
12967;DHT22;6548;49.996;8.238;2023-07-31T20:47:31;18.70;99.90
12967;DHT22;6548;49.996;8.238;2023-07-31T20:49:57;18.50;99.90
12967;DHT22;6548;49.996;8.238;2023-07-31T20:52:22;18.50;99.90
12967;DHT22;6548;49.996;8.238;2023-07-31T20:54:48;18.30;99.90
12967;DHT22;6548;49.996;8.238;2023-07-31T20:57:16;18.10;99.90
12967;DHT22;6548;49.996;8.238;2023-07-31T20:59:42;18.10;99.90
12967;DHT22;6548;49.996;8.238;2023-07-31T21:02:08;18.00;99.90
12967;DHT22;6548;49.996;8.238;2023-07-31T21:04:34;18.00;99.90
12967;DHT22;6548;49.996;8.238;2023-07-31T21:07:01;17.90;99.90
12967;DHT22;6548;49.996;8.238;2023-07-31T21:09:27;17.90;99.90
12967;DHT22;6548;49.996;8.238;2023-07-31T21:11:52;17.80;99.90
12967;DHT22;6548;49.996;8.238;2023-07-31T21:14:18;17.80;99.90
12967;DHT22;6548;49.996;8.238;2023-07-31T21:16:44;17.80;99.90
12967;DHT22;6548;49.996;8.238;2023-07-31T21:19:09;17.80;99.90
12967;DHT22;6548;49.996;8.238;2023-07-31T21:21:35;17.80;99.90
12967;DHT22;6548;49.996;8.238;2023-07-31T21:24:00;17.80;99.90
12967;DHT22;6548;49.996;8.238;2023-07-31T21:26:26;17.80;99.90
12967;DHT22;6548;49.996;8.238;2023-07-31T21:28:51;17.80;99.90
12967;DHT22;6548;49.996;8.238;2023-07-31T21:31:17;17.80;99.90
12967;DHT22;6548;49.996;8.238;2023-07-31T21:33:42;17.80;99.90
12967;DHT22;6548;49.996;8.238;2023-07-31T21:36:08;17.80;99.90
12967;DHT22;6548;49.996;8.238;2023-07-31T21:38:33;17.80;99.90
12967;DHT22;6548;49.996;8.238;2023-07-31T21:40:59;17.80;99.90
12967;DHT22;6548;49.996;8.238;2023-07-31T21:43:25;17.80;99.90
12967;DHT22;6548;49.996;8.238;2023-07-31T21:45:51;17.80;99.90
12967;DHT22;6548;49.996;8.238;2023-07-31T21:48:16;17.80;99.90
12967;DHT22;6548;49.996;8.238;2023-07-31T21:50:43;17.80;99.90
12967;DHT22;6548;49.996;8.238;2023-07-31T21:53:09;17.70;99.90
12967;DHT22;6548;49.996;8.238;2023-07-31T21:55:34;17.70;99.90
12967;DHT22;6548;49.996;8.238;2023-07-31T21:58:00;17.70;99.90
12967;DHT22;6548;49.996;8.238;2023-07-31T22:00:25;17.70;99.90
12967;DHT22;6548;49.996;8.238;2023-07-31T22:02:52;17.70;99.90
12967;DHT22;6548;49.996;8.238;2023-07-31T22:05:18;17.80;99.90
12967;DHT22;6548;49.996;8.238;2023-07-31T22:07:44;17.80;99.90
12967;DHT22;6548;49.996;8.238;2023-07-31T22:10:09;17.90;99.90
12967;DHT22;6548;49.996;8.238;2023-07-31T22:12:35;17.90;99.90
12967;DHT22;6548;49.996;8.238;2023-07-31T22:15:00;17.90;99.90
12967;DHT22;6548;49.996;8.238;2023-07-31T22:17:26;17.90;99.90
12967;DHT22;6548;49.996;8.238;2023-07-31T22:19:52;18.00;99.90
12967;DHT22;6548;49.996;8.238;2023-07-31T22:22:17;17.90;99.90
12967;DHT22;6548;49.996;8.238;2023-07-31T22:24:43;17.90;99.90
12967;DHT22;6548;49.996;8.238;2023-07-31T22:27:12;17.90;99.90
12967;DHT22;6548;49.996;8.238;2023-07-31T22:29:39;17.90;99.90
12967;DHT22;6548;49.996;8.238;2023-07-31T22:32:05;17.80;99.90
12967;DHT22;6548;49.996;8.238;2023-07-31T22:34:32;17.90;99.90
12967;DHT22;6548;49.996;8.238;2023-07-31T22:36:57;17.80;99.90
12967;DHT22;6548;49.996;8.238;2023-07-31T22:39:23;17.90;99.90
12967;DHT22;6548;49.996;8.238;2023-07-31T22:41:48;17.90;99.90
12967;DHT22;6548;49.996;8.238;2023-07-31T22:44:14;17.90;99.90
12967;DHT22;6548;49.996;8.238;2023-07-31T22:46:39;17.80;99.90
12967;DHT22;6548;49.996;8.238;2023-07-31T22:49:05;17.80;99.90
12967;DHT22;6548;49.996;8.238;2023-07-31T22:51:30;17.90;99.90
12967;DHT22;6548;49.996;8.238;2023-07-31T22:53:56;17.80;99.90
12967;DHT22;6548;49.996;8.238;2023-07-31T22:56:21;17.80;99.90
12967;DHT22;6548;49.996;8.238;2023-07-31T22:58:47;17.80;99.90
12967;DHT22;6548;49.996;8.238;2023-07-31T23:01:13;17.80;99.90
12967;DHT22;6548;49.996;8.238;2023-07-31T23:03:38;17.80;99.90
12967;DHT22;6548;49.996;8.238;2023-07-31T23:06:04;17.80;99.90
12967;DHT22;6548;49.996;8.238;2023-07-31T23:08:29;17.90;99.90
12967;DHT22;6548;49.996;8.238;2023-07-31T23:10:55;17.90;99.90
12967;DHT22;6548;49.996;8.238;2023-07-31T23:13:20;17.80;99.90
12967;DHT22;6548;49.996;8.238;2023-07-31T23:15:46;17.80;99.90
12967;DHT22;6548;49.996;8.238;2023-07-31T23:18:12;17.80;99.90
12967;DHT22;6548;49.996;8.238;2023-07-31T23:20:38;17.70;99.90
12967;DHT22;6548;49.996;8.238;2023-07-31T23:23:04;17.70;99.90
12967;DHT22;6548;49.996;8.238;2023-07-31T23:25:34;17.70;99.90
12967;DHT22;6548;49.996;8.238;2023-07-31T23:28:00;17.70;99.90
12967;DHT22;6548;49.996;8.238;2023-07-31T23:30:25;17.60;99.90
12967;DHT22;6548;49.996;8.238;2023-07-31T23:32:51;17.60;99.90
12967;DHT22;6548;49.996;8.238;2023-07-31T23:35:16;17.60;99.90
12967;DHT22;6548;49.996;8.238;2023-07-31T23:37:42;17.60;99.90
12967;DHT22;6548;49.996;8.238;2023-07-31T23:40:08;17.60;99.90
12967;DHT22;6548;49.996;8.238;2023-07-31T23:42:33;17.60;99.90
12967;DHT22;6548;49.996;8.238;2023-07-31T23:44:59;17.60;99.90
12967;DHT22;6548;49.996;8.238;2023-07-31T23:47:25;17.60;99.90
12967;DHT22;6548;49.996;8.238;2023-07-31T23:49:50;17.60;99.90
12967;DHT22;6548;49.996;8.238;2023-07-31T23:52:16;17.60;99.90
12967;DHT22;6548;49.996;8.238;2023-07-31T23:54:41;17.60;99.90
12967;DHT22;6548;49.996;8.238;2023-07-31T23:57:07;17.60;99.90
12967;DHT22;6548;49.996;8.238;2023-07-31T23:59:32;17.60;99.90
